Time;durP1;ratioP1;P1;durP2;ratioP2;P2;SDS_P1;SDS_P2;PMS_P1;PMS_P2;Temp;Humidity;BMP_temperature;BMP_pressure;BME280_temperature;BME280_humidity;BME280_pressure;Samples;Min_cycle;Max_cycle;Signal;HPM_P1;HPM_P2
2022/12/14 00:01:18;;;;;;;42.05;6.00;;;16.50;99.90;;;;;;5012646;28;20022;-76
2022/12/14 00:03:45;;;;;;;46.50;6.55;;;16.50;99.90;;;;;;5013100;28;20026;-77
2022/12/14 00:06:24;;;;;;;43.95;6.13;;;16.50;99.90;;;;;;5011510;28;20354;-76
2022/12/14 00:08:52;;;;;;;32.15;5.47;;;16.50;99.90;;;;;;5012690;28;20121;-77
2022/12/14 00:11:21;;;;;;;37.55;5.65;;;16.50;99.90;;;;;;5011471;28;20041;-77
2022/12/14 00:13:55;;;;;;;33.33;5.13;;;16.50;99.90;;;;;;5012815;28;20049;-71
2022/12/14 00:16:23;;;;;;;35.13;5.85;;;16.50;99.90;;;;;;5012734;28;20394;-77
2022/12/14 00:18:51;;;;;;;35.88;5.95;;;16.50;99.90;;;;;;5012097;28;20086;-76
2022/12/14 00:21:17;;;;;;;36.00;4.88;;;16.50;99.90;;;;;;5012542;28;20030;-76
2022/12/14 00:23:45;;;;;;;33.42;5.78;;;16.50;99.90;;;;;;5012708;28;20057;-76
2022/12/14 00:26:19;;;;;;;41.42;6.38;;;16.50;99.90;;;;;;5012677;28;20121;-76
2022/12/14 00:28:48;;;;;;;40.20;6.38;;;16.60;99.90;;;;;;5012338;28;20022;-76
2022/12/14 00:31:15;;;;;;;39.58;6.28;;;16.60;99.90;;;;;;5012635;28;20505;-76
2022/12/14 00:33:45;;;;;;;42.95;6.25;;;16.60;99.90;;;;;;5011956;28;20037;-77
2022/12/14 00:36:12;;;;;;;40.25;6.45;;;16.60;99.90;;;;;;5012526;28;20033;-77
2022/12/14 00:38:39;;;;;;;41.28;6.68;;;16.60;99.90;;;;;;5012509;28;20029;-77
2022/12/14 00:41:06;;;;;;;;;;;16.60;99.90;;;;;;5011127;28;20458;-77
2022/12/14 00:43:34;;;;;;;37.03;6.65;;;16.60;99.90;;;;;;5012032;28;19905;-76
2022/12/14 00:46:00;;;;;;;41.80;6.95;;;16.60;99.90;;;;;;5012242;28;20118;-76
2022/12/14 00:48:27;;;;;;;41.22;6.82;;;16.60;99.90;;;;;;5011948;28;20025;-77
2022/12/14 00:50:54;;;;;;;46.72;6.28;;;16.60;99.90;;;;;;5029404;28;20026;-76
2022/12/14 00:53:39;;;;;;;35.30;5.97;;;16.60;99.90;;;;;;5031575;28;20030;-78
2022/12/14 00:56:07;;;;;;;43.08;6.13;;;16.60;99.90;;;;;;5031708;28;20501;-77
2022/12/14 00:58:33;;;;;;;35.33;5.93;;;16.60;99.90;;;;;;5030560;28;20034;-76
2022/12/14 01:01:03;;;;;;;;;;;16.60;99.90;;;;;;5032280;28;20064;-77
2022/12/14 01:03:29;;;;;;;42.17;5.88;;;16.60;99.90;;;;;;5031471;28;19905;-76
2022/12/14 01:05:58;;;;;;;39.08;7.07;;;16.60;99.90;;;;;;5031744;28;20025;-76
2022/12/14 01:08:24;;;;;;;42.67;6.03;;;16.60;99.90;;;;;;5031287;28;20396;-77
2022/12/14 01:10:52;;;;;;;30.55;5.07;;;16.60;99.90;;;;;;5031854;28;20029;-76
2022/12/14 01:13:18;;;;;;;38.88;5.82;;;16.60;99.90;;;;;;5030077;28;20038;-75
2022/12/14 01:15:45;;;;;;;35.38;5.78;;;16.60;99.90;;;;;;5030215;28;20033;-77
2022/12/14 01:18:11;;;;;;;31.30;6.35;;;16.60;99.90;;;;;;5029897;28;20450;-76
2022/12/14 01:20:37;;;;;;;42.58;6.50;;;16.60;99.90;;;;;;5031485;28;20029;-76
2022/12/14 01:23:03;;;;;;;45.28;7.38;;;16.60;99.90;;;;;;5031472;28;20021;-76
2022/12/14 01:25:30;;;;;;;46.97;6.72;;;16.60;99.90;;;;;;5029923;28;20033;-77
2022/12/14 01:28:02;;;;;;;37.95;6.50;;;16.60;99.90;;;;;;5029950;28;20025;-77
2022/12/14 01:30:29;;;;;;;43.38;6.22;;;16.70;99.90;;;;;;5033211;28;20078;-77
2022/12/14 01:32:55;;;;;;;37.92;6.32;;;16.70;99.90;;;;;;5034437;28;20093;-76
2022/12/14 01:35:22;;;;;;;;;;;16.70;99.90;;;;;;5033644;28;20029;-76
2022/12/14 01:37:50;;;;;;;35.90;6.32;;;16.70;99.90;;;;;;5033066;28;19920;-76
2022/12/14 01:40:18;;;;;;;35.55;5.53;;;16.70;99.90;;;;;;5035098;28;20090;-76
2022/12/14 01:42:44;;;;;;;40.47;6.72;;;16.70;99.90;;;;;;5035061;28;20026;-76
2022/12/14 01:45:20;;;;;;;41.00;6.57;;;16.70;99.90;;;;;;5035429;28;20446;-76
2022/12/14 01:47:55;;;;;;;37.58;5.68;;;16.70;99.90;;;;;;5035422;28;20377;-76
2022/12/14 01:50:36;;;;;;;40.55;6.38;;;16.70;99.90;;;;;;5035473;28;20107;-77
2022/12/14 01:53:12;;;;;;;40.33;6.40;;;16.70;99.90;;;;;;5034782;28;20078;-76
2022/12/14 01:55:46;;;;;;;34.03;5.72;;;16.70;99.90;;;;;;5034003;28;20030;-76
2022/12/14 01:58:25;;;;;;;37.58;5.97;;;16.70;99.90;;;;;;5035020;28;20060;-77
2022/12/14 02:01:04;;;;;;;31.60;6.18;;;16.70;99.90;;;;;;5033482;28;20107;-77
2022/12/14 02:03:45;;;;;;;42.85;6.43;;;16.70;99.90;;;;;;5033340;28;20025;-76
2022/12/14 02:06:19;;;;;;;39.05;5.68;;;16.70;99.90;;;;;;5034872;28;20025;-77
2022/12/14 02:08:48;;;;;;;40.22;6.75;;;16.60;99.90;;;;;;5034700;28;20099;-77
2022/12/14 02:11:28;;;;;;;38.95;6.90;;;16.60;99.90;;;;;;5034570;28;20036;-77
2022/12/14 02:13:54;;;;;;;49.15;7.75;;;16.60;99.90;;;;;;5034586;28;20040;-77
2022/12/14 02:16:20;;;;;;;;;;;16.50;99.90;;;;;;5035378;28;20053;-77
2022/12/14 02:18:47;;;;;;;61.25;8.18;;;16.50;99.90;;;;;;5033030;28;19905;-77
2022/12/14 02:22:05;;;;;;;62.55;9.63;;;16.50;99.90;;;;;;5032185;28;20038;-76
2022/12/14 02:25:07;;;;;;;47.70;7.95;;;16.40;99.90;;;;;;4997301;28;20453;-76
2022/12/14 02:28:07;;;;;;;72.70;10.20;;;16.50;99.90;;;;;;5034271;28;20359;-77
2022/12/14 02:30:38;;;;;;;61.65;8.27;;;16.50;99.90;;;;;;5014739;28;20127;-76
2022/12/14 02:33:22;;;;;;;79.38;10.55;;;16.50;99.90;;;;;;5014486;28;20048;-77
2022/12/14 02:35:57;;;;;;;69.03;7.45;;;16.50;99.90;;;;;;5014697;28;20030;-77
2022/12/14 02:38:40;;;;;;;107.55;8.90;;;16.50;99.90;;;;;;5014658;28;20060;-77
2022/12/14 02:41:37;;;;;;;50.60;8.60;;;16.50;99.90;;;;;;5014571;28;20370;-77
2022/12/14 02:44:15;;;;;;;68.13;10.13;;;16.50;99.90;;;;;;4981648;28;20121;-77
2022/12/14 02:46:56;;;;;;;53.03;8.15;;;16.50;99.90;;;;;;5014694;28;20025;-76
2022/12/14 02:49:55;;;;;;;65.50;8.80;;;16.50;99.90;;;;;;5014659;28;20095;-74
2022/12/14 02:52:59;;;;;;;61.78;9.57;;;16.50;99.90;;;;;;5014295;28;20076;-76
2022/12/14 02:55:38;;;;;;;56.15;9.75;;;16.50;99.90;;;;;;5014705;28;20374;-77
2022/12/14 02:58:30;;;;;;;70.03;11.15;;;16.50;99.90;;;;;;5014263;28;20026;-78
2022/12/14 03:00:56;;;;;;;88.50;11.52;;;16.50;99.90;;;;;;5027610;28;20033;-77
2022/12/14 03:03:24;;;;;;;63.35;10.35;;;16.50;99.90;;;;;;5013846;28;20026;-77
2022/12/14 03:06:03;;;;;;;65.90;10.35;;;16.50;99.90;;;;;;5013402;28;20501;-77
2022/12/14 03:08:39;;;;;;;70.22;11.30;;;16.50;99.90;;;;;;5012214;28;20025;-76
2022/12/14 03:11:08;;;;;;;83.70;9.95;;;16.50;99.90;;;;;;5012329;28;20045;-77
2022/12/14 03:13:40;;;;;;;94.05;9.25;;;16.50;99.90;;;;;;5013637;28;20111;-77
2022/12/14 03:16:14;;;;;;;107.07;7.78;;;16.50;99.90;;;;;;5013848;28;20390;-77
2022/12/14 03:19:02;;;;;;;120.15;8.38;;;16.50;99.90;;;;;;5013587;28;20029;-76
2022/12/14 03:21:34;;;;;;;42.13;7.53;;;16.40;99.90;;;;;;5013689;28;20092;-77
2022/12/14 03:24:08;;;;;;;45.67;7.93;;;16.40;99.90;;;;;;5013724;28;20382;-77
2022/12/14 03:26:43;;;;;;;50.95;9.05;;;16.40;99.90;;;;;;5013695;28;20022;-77
2022/12/14 03:29:16;;;;;;;50.55;10.35;;;16.40;99.90;;;;;;5014196;28;20030;-77
2022/12/14 03:32:03;;;;;;;39.40;8.38;;;16.40;99.90;;;;;;5011886;28;20107;-77
2022/12/14 03:34:39;;;;;;;73.07;8.52;;;16.50;99.90;;;;;;5013604;28;20029;-77
2022/12/14 03:37:31;;;;;;;54.45;8.98;;;16.50;99.90;;;;;;5013131;28;20033;-77
2022/12/14 03:39:58;;;;;;;55.00;9.48;;;16.50;99.90;;;;;;5009065;28;20048;-77
2022/12/14 03:43:03;;;;;;;60.90;10.18;;;16.50;99.90;;;;;;5011673;28;20378;-77
2022/12/14 03:45:39;;;;;;;118.70;9.15;;;16.50;99.90;;;;;;5013321;28;20030;-77
2022/12/14 03:48:13;;;;;;;44.65;7.95;;;16.50;99.90;;;;;;5012461;28;20042;-76
2022/12/14 03:50:49;;;;;;;49.40;8.35;;;16.50;99.90;;;;;;5013518;28;20034;-77
2022/12/14 03:53:38;;;;;;;68.38;9.65;;;16.50;99.90;;;;;;5012264;28;20062;-76
2022/12/14 03:56:08;;;;;;;70.55;8.05;;;16.50;99.90;;;;;;5013279;28;20052;-76
2022/12/14 03:59:14;;;;;;;46.30;8.18;;;16.50;99.90;;;;;;5013200;28;20045;-77
2022/12/14 04:02:08;;;;;;;107.60;7.95;;;16.50;99.90;;;;;;5013297;28;20076;-77
2022/12/14 04:04:53;;;;;;;150.45;7.53;;;16.50;99.90;;;;;;5013264;28;20044;-76
2022/12/14 04:07:48;;;;;;;56.13;6.70;;;16.50;99.90;;;;;;5013697;28;20041;-77
2022/12/14 04:19:00;;;;;;;85.95;7.97;;;16.40;99.90;;;;;;5012844;28;20429;-77
2022/12/14 04:21:39;;;;;;;76.73;8.60;;;16.30;99.90;;;;;;5013352;28;20390;-76
2022/12/14 04:27:06;;;;;;;56.10;9.70;;;16.30;99.90;;;;;;5013697;28;20107;-76
2022/12/14 04:32:50;;;;;;;46.78;8.45;;;16.30;99.90;;;;;;5013787;28;20160;-76
2022/12/14 04:35:38;;;;;;;50.83;8.70;;;16.30;99.90;;;;;;5028600;28;20030;-76
2022/12/14 04:38:27;;;;;;;64.38;8.32;;;16.30;99.90;;;;;;5013996;28;20093;-76
2022/12/14 04:41:04;;;;;;;52.67;9.05;;;16.20;99.90;;;;;;5013707;28;20375;-76
2022/12/14 04:43:38;;;;;;;60.40;9.38;;;16.10;99.90;;;;;;5013777;28;20038;-76
2022/12/14 04:46:11;;;;;;;56.17;9.23;;;16.10;99.90;;;;;;5013946;28;20026;-77
2022/12/14 04:49:15;;;;;;;50.75;8.50;;;16.00;99.90;;;;;;5013789;28;20067;-76
2022/12/14 04:52:04;;;;;;;46.10;8.15;;;16.00;99.90;;;;;;5008870;28;20033;-76
2022/12/14 04:54:42;;;;;;;51.75;9.13;;;16.00;99.90;;;;;;5012102;28;20505;-76
2022/12/14 04:57:33;;;;;;;52.78;7.22;;;16.10;99.90;;;;;;5013756;28;20026;-76
2022/12/14 05:00:00;;;;;;;52.35;8.77;;;16.20;99.90;;;;;;5013706;28;20076;-76
2022/12/14 05:03:11;;;;;;;41.90;8.05;;;16.10;99.90;;;;;;5013388;28;20414;-76
2022/12/14 05:06:05;;;;;;;45.58;8.82;;;16.10;99.90;;;;;;5013026;28;20034;-76
2022/12/14 05:08:52;;;;;;;42.60;7.18;;;16.10;99.90;;;;;;5013578;28;20073;-76
2022/12/14 05:11:32;;;;;;;49.60;7.82;;;16.10;99.90;;;;;;5013754;28;20202;-76
2022/12/14 05:14:01;;;;;;;36.03;7.25;;;16.00;99.90;;;;;;5013682;28;20022;-76
2022/12/14 05:16:28;;;;;;;42.08;7.95;;;16.10;99.90;;;;;;5013507;28;20022;-76
2022/12/14 05:18:55;;;;;;;41.70;7.43;;;16.10;99.90;;;;;;5013257;28;20041;-76
2022/12/14 05:24:06;;;;;;;34.17;6.85;;;16.00;99.90;;;;;;5013654;28;20080;-76
2022/12/14 05:26:33;;;;;;;48.45;6.80;;;16.00;99.90;;;;;;5011950;28;20146;-76
2022/12/14 05:28:59;;;;;;;29.67;6.50;;;16.00;99.90;;;;;;5013729;28;20026;-76
2022/12/14 05:31:26;;;;;;;37.97;6.93;;;16.00;99.90;;;;;;5013155;28;20030;-77
2022/12/14 05:33:55;;;;;;;43.10;7.28;;;15.90;99.90;;;;;;5013520;28;20180;-76
2022/12/14 05:36:21;;;;;;;35.22;7.40;;;15.90;99.90;;;;;;5012894;28;20102;-76
2022/12/14 05:38:49;;;;;;;39.42;6.95;;;15.90;99.90;;;;;;5018908;28;20182;-76
2022/12/14 05:41:33;;;;;;;30.95;6.63;;;15.90;99.90;;;;;;5031696;28;20104;-77
2022/12/14 05:43:59;;;;;;;45.58;7.85;;;15.90;99.90;;;;;;5027803;28;20029;-75
2022/12/14 05:46:26;;;;;;;37.80;7.28;;;15.90;99.90;;;;;;5032590;28;20108;-77
2022/12/14 05:48:54;;;;;;;40.10;6.93;;;15.90;99.90;;;;;;5032561;28;20052;-73
2022/12/14 05:51:21;;;;;;;41.85;6.78;;;16.00;99.90;;;;;;5032958;28;20108;-73
2022/12/14 05:53:51;;;;;;;39.45;7.03;;;16.00;99.90;;;;;;5031955;28;20025;-75
2022/12/14 05:56:17;;;;;;;42.35;6.93;;;16.00;99.90;;;;;;5024132;28;20413;-73
2022/12/14 05:58:48;;;;;;;44.75;8.23;;;16.00;99.90;;;;;;5028868;28;20080;-76
2022/12/14 06:01:20;;;;;;;40.80;6.95;;;16.00;99.90;;;;;;5023773;28;20112;-74
2022/12/14 06:03:50;;;;;;;45.70;7.38;;;16.00;99.90;;;;;;5029082;28;20026;-76
2022/12/14 06:06:16;;;;;;;41.38;7.15;;;16.00;99.90;;;;;;5030200;28;20099;-76
2022/12/14 06:08:45;;;;;;;31.13;6.28;;;16.00;99.90;;;;;;5031767;28;20045;-76
2022/12/14 06:11:19;;;;;;;38.05;7.25;;;16.00;99.90;;;;;;5031492;28;20111;-76
2022/12/14 06:13:46;;;;;;;39.70;7.30;;;16.00;99.90;;;;;;5032551;28;20087;-77
2022/12/14 06:16:16;;;;;;;;;;;16.00;99.90;;;;;;5034915;28;20034;-78
2022/12/14 06:18:47;;;;;;;44.50;6.55;;;16.00;99.90;;;;;;5034969;28;19912;-78
2022/12/14 06:21:15;;;;;;;49.80;7.82;;;16.00;99.90;;;;;;5036260;28;20033;-78
2022/12/14 06:23:43;;;;;;;38.88;6.20;;;16.00;99.90;;;;;;5035688;28;20029;-77
2022/12/14 06:26:10;;;;;;;47.83;6.60;;;16.00;99.90;;;;;;5036165;28;20029;-77
2022/12/14 06:28:37;;;;;;;42.60;7.15;;;16.00;99.90;;;;;;5034817;28;20044;-74
2022/12/14 06:31:03;;;;;;;;;;;16.00;99.90;;;;;;5020102;28;20091;-77
2022/12/14 06:33:34;;;;;;;42.13;7.68;;;16.00;99.90;;;;;;5034595;28;20335;-77
2022/12/14 06:36:01;;;;;;;37.65;6.80;;;16.00;99.90;;;;;;5036148;28;20040;-77
2022/12/14 06:38:29;;;;;;;45.55;8.00;;;16.20;99.90;;;;;;5035492;28;20037;-78
2022/12/14 06:40:55;;;;;;;37.75;7.68;;;16.20;99.90;;;;;;5035842;28;20025;-78
2022/12/14 06:43:25;;;;;;;38.47;7.47;;;16.40;99.90;;;;;;5033638;28;20037;-77
2022/12/14 06:45:59;;;;;;;34.25;6.38;;;16.70;99.90;;;;;;5034716;28;20074;-75
2022/12/14 06:48:25;;;;;;;40.85;6.18;;;17.10;99.90;;;;;;5034537;28;20374;-79
2022/12/14 06:50:58;;;;;;;32.10;6.63;;;17.50;99.90;;;;;;5034783;28;20032;-78
2022/12/14 06:53:24;;;;;;;30.77;5.18;;;17.90;99.90;;;;;;5034260;28;20486;-78
2022/12/14 06:55:50;;;;;;;28.70;5.97;;;18.20;99.90;;;;;;5032631;28;20438;-78
2022/12/14 06:58:16;;;;;;;32.08;6.25;;;18.60;99.90;;;;;;5034075;28;20116;-73
2022/12/14 07:00:43;;;;;;;27.60;6.05;;;18.80;99.90;;;;;;5034226;28;20100;-77
2022/12/14 07:03:22;;;;;;;30.92;6.13;;;19.30;99.90;;;;;;5033889;28;20132;-78
2022/12/14 07:05:48;;;;;;;21.55;4.70;;;19.60;99.90;;;;;;5034159;28;20017;-78
2022/12/14 07:08:15;;;;;;;26.20;4.70;;;19.80;99.90;;;;;;5033799;28;20370;-78
2022/12/14 07:10:41;;;;;;;27.65;5.35;;;19.70;99.90;;;;;;5033825;28;20089;-76
2022/12/14 07:13:11;;;;;;;29.63;6.30;;;19.50;99.90;;;;;;5033781;28;20021;-77
2022/12/14 07:15:38;;;;;;;27.60;6.00;;;19.20;99.90;;;;;;5033952;28;20508;-81
2022/12/14 07:18:04;;;;;;;24.13;5.20;;;18.90;99.90;;;;;;5033469;28;20022;-78
2022/12/14 07:20:30;;;;;;;26.70;5.80;;;18.70;99.90;;;;;;5033773;28;20061;-77
2022/12/14 07:22:56;;;;;;;24.92;5.43;;;18.60;99.90;;;;;;5033962;28;20079;-72
2022/12/14 07:25:22;;;;;;;33.75;6.03;;;18.60;99.90;;;;;;5034361;28;20483;-74
2022/12/14 07:27:48;;;;;;;27.63;5.07;;;18.50;99.90;;;;;;5033588;28;20025;-78
2022/12/14 07:30:14;;;;;;;29.80;5.80;;;18.40;99.90;;;;;;5032576;28;20025;-79
2022/12/14 07:32:45;;;;;;;25.08;5.00;;;18.10;99.90;;;;;;5033887;28;20026;-78
2022/12/14 07:35:11;;;;;;;33.35;5.57;;;17.80;99.90;;;;;;5034316;28;20048;-79
2022/12/14 07:37:37;;;;;;;24.88;5.30;;;17.60;99.90;;;;;;5033914;28;20032;-80
2022/12/14 07:40:04;;;;;;;32.08;6.35;;;17.60;99.90;;;;;;5033784;28;20029;-80
2022/12/14 07:42:30;;;;;;;27.88;5.65;;;17.60;99.90;;;;;;5034106;28;20500;-76
2022/12/14 07:44:57;;;;;;;24.88;5.60;;;17.60;99.90;;;;;;5033491;28;20026;-78
2022/12/14 07:47:23;;;;;;;32.83;5.75;;;17.80;99.90;;;;;;5032038;28;20029;-76
2022/12/14 07:49:49;;;;;;;33.42;6.10;;;18.10;99.90;;;;;;5066737;22;20485;-77
2022/12/14 07:52:15;;;;;;;29.35;5.63;;;18.40;99.90;;;;;;5071703;28;20055;-78
2022/12/14 07:54:41;;;;;;;36.42;5.70;;;18.60;99.90;;;;;;5073191;28;20036;-83
2022/12/14 07:57:09;;;;;;;27.65;5.47;;;18.90;99.90;;;;;;5073345;28;20017;-78
2022/12/14 07:59:36;;;;;;;31.30;5.68;;;18.90;99.90;;;;;;5055097;28;20123;-76
2022/12/14 08:02:03;;;;;;;29.40;5.85;;;18.90;99.90;;;;;;5072803;28;20024;-76
2022/12/14 08:04:33;;;;;;;26.52;5.82;;;19.00;99.90;;;;;;5073275;28;20112;-77
2022/12/14 08:06:59;;;;;;;32.30;5.75;;;19.00;99.90;;;;;;5072734;28;20017;-77
2022/12/14 08:09:25;;;;;;;29.88;6.22;;;18.90;99.90;;;;;;5073031;28;20143;-76
2022/12/14 08:11:51;;;;;;;31.75;6.50;;;18.80;99.90;;;;;;5072612;28;20094;-76
2022/12/14 08:14:18;;;;;;;34.65;6.22;;;18.70;99.90;;;;;;5073230;28;20046;-78
2022/12/14 08:16:47;;;;;;;23.92;5.20;;;18.60;99.90;;;;;;5072958;28;20020;-78
2022/12/14 08:19:13;;;;;;;33.03;6.03;;;18.70;99.90;;;;;;5072960;28;20387;-77
2022/12/14 08:21:40;;;;;;;33.78;5.88;;;18.70;99.90;;;;;;5071949;28;20024;-79
2022/12/14 08:24:06;;;;;;;;;;;18.70;99.90;;;;;;5073167;28;20033;-79
2022/12/14 08:26:33;;;;;;;30.05;6.05;;;18.50;99.90;;;;;;5072292;28;19911;-76
2022/12/14 08:28:59;;;;;;;27.33;5.68;;;18.50;99.90;;;;;;5072894;28;20115;-77
2022/12/14 08:31:26;;;;;;;29.20;6.05;;;18.50;99.90;;;;;;5072356;28;20060;-77
2022/12/14 08:33:54;;;;;;;36.88;6.65;;;18.30;99.90;;;;;;5072674;28;20527;-77
2022/12/14 08:36:26;;;;;;;33.33;6.05;;;18.00;99.90;;;;;;5072475;28;20131;-77
2022/12/14 08:39:00;;;;;;;33.22;6.55;;;18.00;99.90;;;;;;5071054;28;20035;-77
2022/12/14 08:41:27;;;;;;;33.35;8.27;;;17.80;99.90;;;;;;5072644;28;20103;-76
2022/12/14 08:43:58;;;;;;;33.90;7.75;;;17.80;99.90;;;;;;5071526;28;20064;-76
2022/12/14 08:46:26;;;;;;;40.88;7.13;;;17.80;99.90;;;;;;5071285;28;20523;-77
2022/12/14 08:48:54;;;;;;;38.97;7.25;;;17.70;99.90;;;;;;5071990;28;20068;-76
2022/12/14 08:51:22;;;;;;;45.80;9.88;;;17.80;99.90;;;;;;5070733;28;20311;-75
2022/12/14 08:53:52;;;;;;;41.10;11.02;;;17.70;99.90;;;;;;5071857;28;20115;-75
2022/12/14 08:56:24;;;;;;;36.10;10.10;;;17.60;99.90;;;;;;5072150;28;20025;-74
2022/12/14 08:58:50;;;;;;;41.92;15.30;;;17.70;99.90;;;;;;5070821;28;20032;-75
2022/12/14 09:01:23;;;;;;;44.05;15.70;;;17.90;99.90;;;;;;5071954;28;20036;-75
2022/12/14 09:03:49;;;;;;;47.55;16.00;;;17.90;99.90;;;;;;5070541;28;20469;-75
2022/12/14 09:06:26;;;;;;;35.45;9.98;;;18.00;99.90;;;;;;5072160;28;20024;-75
2022/12/14 09:08:54;;;;;;;33.30;8.38;;;17.80;99.90;;;;;;5069539;28;20056;-75
2022/12/14 09:11:21;;;;;;;34.38;8.05;;;17.70;99.90;;;;;;5070523;28;20028;-76
2022/12/14 09:13:48;;;;;;;31.40;9.68;;;17.60;99.90;;;;;;5070978;28;20041;-76
2022/12/14 09:16:17;;;;;;;35.80;11.13;;;17.70;99.90;;;;;;5071577;28;20490;-75
2022/12/14 09:18:45;;;;;;;32.20;10.98;;;17.70;99.90;;;;;;5069797;28;20488;-76
2022/12/14 09:21:12;;;;;;;38.05;11.48;;;17.60;99.90;;;;;;5071128;28;20068;-76
2022/12/14 09:23:41;;;;;;;37.78;11.05;;;17.50;99.90;;;;;;5071159;28;20104;-76
2022/12/14 09:26:25;;;;;;;38.97;12.82;;;17.60;99.90;;;;;;5070913;28;20020;-75
2022/12/14 09:28:54;;;;;;;32.40;11.40;;;17.60;99.90;;;;;;5071757;28;20021;-74
2022/12/14 09:31:22;;;;;;;31.77;10.68;;;17.80;99.90;;;;;;5071463;28;20051;-76
2022/12/14 09:33:49;;;;;;;29.95;9.80;;;17.80;99.90;;;;;;5071373;28;20035;-76
2022/12/14 09:36:18;;;;;;;26.75;7.35;;;17.90;99.90;;;;;;5071948;28;20089;-76
2022/12/14 09:38:45;;;;;;;32.78;7.20;;;17.80;99.90;;;;;;5070186;28;20021;-76
2022/12/14 09:41:20;;;;;;;;;;;17.90;99.90;;;;;;5071969;28;20036;-75
2022/12/14 09:44:12;;;;;;;33.08;6.55;;;18.00;99.90;;;;;;5071846;28;19904;-75
2022/12/14 09:46:53;;;;;;;16.52;5.80;;;18.10;99.90;;;;;;5071946;28;20032;-76
2022/12/14 09:49:33;;;;;;;19.35;4.70;;;18.30;99.90;;;;;;5071168;28;20144;-76
2022/12/14 09:52:05;;;;;;;21.23;4.28;;;18.50;99.90;;;;;;5075173;28;20052;-76
2022/12/14 09:54:35;;;;;;;26.75;4.60;;;18.50;99.90;;;;;;5075275;28;20055;-76
2022/12/14 09:57:24;;;;;;;19.02;4.45;;;18.50;99.90;;;;;;5073477;28;20439;-75
2022/12/14 09:59:53;;;;;;;20.95;4.18;;;18.50;99.90;;;;;;5073732;28;20037;-76
2022/12/14 10:02:49;;;;;;;23.85;3.83;;;18.50;99.90;;;;;;5075020;28;20020;-75
2022/12/14 10:05:38;;;;;;;;;;;18.40;99.90;;;;;;5075651;28;20020;-75
2022/12/14 10:08:28;;;;;;;21.00;4.15;;;18.40;99.90;;;;;;5073480;28;19912;-75
2022/12/14 10:11:00;;;;;;;16.55;3.17;;;18.30;99.90;;;;;;5074202;28;20024;-75
2022/12/14 10:13:31;;;;;;;23.30;3.75;;;18.30;99.90;;;;;;5074558;28;20117;-75
2022/12/14 10:16:16;;;;;;;22.00;4.32;;;18.30;99.90;;;;;;5073709;28;20044;-75
2022/12/14 10:19:05;;;;;;;17.25;3.85;;;18.20;99.90;;;;;;5074859;28;20028;-75
2022/12/14 10:21:52;;;;;;;18.02;4.00;;;18.30;99.90;;;;;;5074786;28;20037;-76
2022/12/14 10:24:40;;;;;;;26.23;4.00;;;18.30;99.90;;;;;;5071607;28;20032;-74
2022/12/14 10:27:10;;;;;;;18.55;4.15;;;18.30;99.90;;;;;;5074681;28;20496;-76
2022/12/14 10:30:08;;;;;;;24.77;4.63;;;18.30;99.90;;;;;;5056564;28;20165;-75
2022/12/14 10:32:39;;;;;;;16.95;4.35;;;18.40;99.90;;;;;;5074520;28;20096;-74
2022/12/14 10:35:17;;;;;;;18.88;4.15;;;18.50;99.90;;;;;;5074231;28;20124;-75
2022/12/14 10:38:18;;;;;;;16.95;3.45;;;18.50;99.90;;;;;;5072716;28;20465;-76
2022/12/14 10:40:49;;;;;;;20.38;3.90;;;18.60;99.90;;;;;;5071363;28;20431;-75
2022/12/14 10:43:38;;;;;;;24.60;7.20;;;18.70;99.90;;;;;;5074100;28;20024;-75
2022/12/14 10:46:13;;;;;;;19.25;4.78;;;18.80;99.90;;;;;;5073234;28;20050;-76
2022/12/14 10:55:10;;;;;;;18.50;4.32;;;18.80;99.90;;;;;;5073731;28;20051;-75
2022/12/14 10:57:36;;;;;;;24.65;4.88;;;18.80;99.90;;;;;;5073390;28;20127;-76
2022/12/14 11:00:11;;;;;;;18.90;4.70;;;18.90;99.90;;;;;;5073711;28;20104;-74
2022/12/14 11:02:49;;;;;;;21.02;4.75;;;18.80;99.90;;;;;;5073087;28;20500;-75
2022/12/14 11:05:30;;;;;;;17.25;4.40;;;18.80;99.90;;;;;;5073519;28;20017;-75
2022/12/14 11:07:56;;;;;;;19.00;4.00;;;18.80;99.90;;;;;;5073298;28;20115;-75
2022/12/14 11:10:28;;;;;;;18.65;4.72;;;18.80;99.90;;;;;;5073040;28;20162;-74
2022/12/14 11:13:13;;;;;;;16.35;4.22;;;18.60;99.90;;;;;;5073604;28;20223;-75
2022/12/14 11:16:15;;;;;;;21.27;4.70;;;18.60;99.90;;;;;;5073517;28;20048;-75
2022/12/14 11:18:41;;;;;;;17.88;4.50;;;18.70;99.90;;;;;;5073288;28;20055;-75
2022/12/14 11:21:14;;;;;;;16.63;4.18;;;18.60;99.90;;;;;;5071934;28;20082;-75
2022/12/14 11:23:45;;;;;;;23.80;6.15;;;18.60;99.90;;;;;;5073812;28;20033;-75
2022/12/14 11:26:34;;;;;;;18.17;4.32;;;18.60;99.90;;;;;;5073286;28;20029;-74
2022/12/14 11:29:02;;;;;;;18.08;4.38;;;18.60;99.90;;;;;;5073053;28;20108;-75
2022/12/14 11:31:36;;;;;;;15.23;4.55;;;18.70;99.90;;;;;;5072853;28;20020;-75
2022/12/14 11:34:07;;;;;;;22.00;4.40;;;18.60;99.90;;;;;;5072721;28;20090;-75
2022/12/14 11:36:39;;;;;;;21.80;3.63;;;18.50;99.90;;;;;;5073333;28;20021;-76
2022/12/14 11:39:22;;;;;;;16.70;3.63;;;18.50;99.90;;;;;;5072924;28;20134;-76
2022/12/14 11:41:58;;;;;;;12.75;3.55;;;18.60;99.90;;;;;;5073614;28;20121;-76
2022/12/14 11:44:38;;;;;;;17.92;3.35;;;18.60;99.90;;;;;;5073316;28;20448;-75
2022/12/14 11:47:25;;;;;;;12.15;3.30;;;18.60;99.90;;;;;;5073130;28;20037;-76
2022/12/14 11:49:56;;;;;;;13.52;3.00;;;18.80;99.90;;;;;;5072586;28;20060;-76
2022/12/14 11:52:25;;;;;;;13.60;3.60;;;18.70;99.90;;;;;;5072854;28;20021;-76
2022/12/14 11:54:51;;;;;;;13.48;4.85;;;18.70;99.90;;;;;;5070694;28;20062;-75
2022/12/14 11:57:20;;;;;;;15.45;4.32;;;18.60;99.90;;;;;;5073002;28;20021;-76
2022/12/14 11:59:53;;;;;;;16.17;2.92;;;18.60;99.90;;;;;;5072822;28;20028;-76
2022/12/14 12:02:25;;;;;;;10.88;3.20;;;18.50;99.90;;;;;;5071298;28;20021;-76
2022/12/14 12:04:57;;;;;;;16.83;3.80;;;18.50;99.90;;;;;;5072234;28;20040;-77
2022/12/14 12:07:32;;;;;;;22.20;4.40;;;18.50;99.90;;;;;;5072427;28;20036;-76
2022/12/14 12:10:06;;;;;;;15.20;3.30;;;18.50;99.90;;;;;;5073092;28;20527;-77
2022/12/14 12:12:34;;;;;;;18.02;4.10;;;18.50;99.90;;;;;;5071971;28;20048;-76
2022/12/14 12:15:32;;;;;;;13.60;3.33;;;18.50;99.90;;;;;;5072048;28;20059;-77
2022/12/14 12:18:07;;;;;;;12.85;3.70;;;18.50;99.90;;;;;;5072139;28;20024;-77
2022/12/14 12:20:41;;;;;;;14.63;3.65;;;18.40;99.90;;;;;;5073651;28;20025;-79
2022/12/14 12:23:49;;;;;;;14.07;3.55;;;18.40;99.90;;;;;;5073009;28;20064;-77
2022/12/14 12:26:34;;;;;;;16.52;3.95;;;18.40;99.90;;;;;;5064465;28;20067;-76
2022/12/14 12:29:21;;;;;;;15.63;3.50;;;18.40;99.90;;;;;;5071265;28;20448;-76
2022/12/14 12:31:57;;;;;;;23.67;4.18;;;18.40;99.90;;;;;;5070956;28;20085;-77
2022/12/14 12:34:34;;;;;;;22.38;3.83;;;18.40;99.90;;;;;;5071987;28;20048;-77
2022/12/14 12:37:01;;;;;;;;;;;18.50;99.90;;;;;;5071628;28;20538;-76
2022/12/14 12:39:30;;;;;;;17.27;4.03;;;18.50;99.90;;;;;;5072487;28;20301;-77
2022/12/14 12:42:30;;;;;;;15.73;3.47;;;18.40;99.90;;;;;;5072498;28;20020;-76
2022/12/14 12:45:30;;;;;;;17.85;3.15;;;18.40;99.90;;;;;;5072992;28;20037;-77
2022/12/14 12:48:11;;;;;;;20.95;4.00;;;18.50;99.90;;;;;;5030635;28;20208;-77
2022/12/14 12:50:44;;;;;;;16.80;3.80;;;18.40;99.90;;;;;;5029881;28;20093;-77
2022/12/14 12:53:27;;;;;;;21.88;3.70;;;18.40;99.90;;;;;;5030233;28;20045;-77
2022/12/14 12:56:09;;;;;;;18.73;3.53;;;18.40;99.90;;;;;;5030519;28;20346;-76
2022/12/14 12:59:01;;;;;;;20.77;3.72;;;18.40;99.90;;;;;;5013403;28;20029;-78
2022/12/14 13:01:42;;;;;;;21.55;3.80;;;18.40;99.90;;;;;;5030037;28;20033;-77
2022/12/14 13:04:23;;;;;;;15.50;3.45;;;18.40;99.90;;;;;;5029823;28;20457;-76
2022/12/14 13:07:00;;;;;;;18.80;3.83;;;18.40;99.90;;;;;;5030219;28;20250;-77
2022/12/14 13:09:42;;;;;;;18.55;3.75;;;18.40;99.90;;;;;;5030664;28;20121;-77
2022/12/14 13:12:23;;;;;;;24.85;4.20;;;18.40;99.90;;;;;;5030604;28;20446;-75
2022/12/14 13:14:51;;;;;;;23.20;3.70;;;18.40;99.90;;;;;;5030693;28;20042;-76
2022/12/14 13:17:32;;;;;;;18.58;3.80;;;18.30;99.90;;;;;;5030830;28;20048;-77
2022/12/14 13:20:02;;;;;;;22.90;3.97;;;18.30;99.90;;;;;;5014207;28;20033;-77
2022/12/14 13:22:32;;;;;;;17.02;3.70;;;18.40;99.90;;;;;;5030894;28;20025;-76
2022/12/14 13:25:37;;;;;;;22.27;4.18;;;18.30;99.90;;;;;;5058381;28;20043;-77
2022/12/14 13:28:21;;;;;;;17.00;3.78;;;18.30;99.90;;;;;;5077548;28;20020;-77
2022/12/14 13:31:19;;;;;;;20.88;3.80;;;18.30;99.90;;;;;;5077370;28;20369;-76
2022/12/14 13:34:23;;;;;;;19.13;3.67;;;18.20;99.90;;;;;;5077063;28;20084;-77
2022/12/14 13:37:28;;;;;;;19.33;3.10;;;18.20;99.90;;;;;;5077357;28;20078;-77
2022/12/14 13:40:15;;;;;;;16.02;3.15;;;18.30;99.90;;;;;;5018255;28;20026;-76